createdAt,value
2022-08-28T00:02:24.702Z,4.28
2022-08-28T00:04:51.864Z,4.10
2022-08-28T00:07:19.540Z,4.53
2022-08-28T00:09:46.105Z,3.92
2022-08-28T00:12:12.672Z,4.50
2022-08-28T00:14:39.384Z,4.40
2022-08-28T00:17:06.090Z,4.03
2022-08-28T00:19:36.639Z,4.22
2022-08-28T00:22:05.881Z,4.22
2022-08-28T00:24:32.690Z,4.63
2022-08-28T00:27:18.483Z,4.97
2022-08-28T00:29:45.305Z,6.22
2022-08-28T00:32:11.850Z,4.32
2022-08-28T00:34:38.989Z,4.82
2022-08-28T00:37:06.876Z,4.60
2022-08-28T00:39:33.474Z,4.97
2022-08-28T00:42:00.042Z,4.15
2022-08-28T00:44:27.774Z,4.53
2022-08-28T00:46:56.507Z,4.70
2022-08-28T00:49:25.440Z,4.50
2022-08-28T00:52:11.317Z,5.35
2022-08-28T00:54:58.571Z,5.10
2022-08-28T00:57:39.011Z,4.93
2022-08-28T01:00:08.806Z,5.07
2022-08-28T01:02:35.448Z,5.50
2022-08-28T01:05:02.186Z,6.15
2022-08-28T01:07:28.823Z,5.80
2022-08-28T01:09:55.890Z,6.00
2022-08-28T01:12:25.405Z,6.80
2022-08-28T01:14:53.699Z,6.82
2022-08-28T01:17:23.754Z,6.25
2022-08-28T01:19:57.303Z,7.28
2022-08-28T01:22:40.452Z,7.10
2022-08-28T01:25:11.465Z,6.97
2022-08-28T01:27:41.892Z,6.60
2022-08-28T01:30:11.320Z,7.68
2022-08-28T01:32:49.568Z,6.63
2022-08-28T01:35:20.400Z,6.78
2022-08-28T01:37:47.399Z,7.70
2022-08-28T01:40:18.125Z,7.97
2022-08-28T01:42:44.951Z,7.50
2022-08-28T01:45:16.196Z,7.10
2022-08-28T01:47:44.035Z,8.02
2022-08-28T01:50:12.994Z,7.60
2022-08-28T01:52:40.332Z,8.07
2022-08-28T01:55:08.091Z,8.55
2022-08-28T01:57:35.533Z,8.43
2022-08-28T02:00:02.294Z,7.85
2022-08-28T02:02:29.322Z,7.75
2022-08-28T02:04:55.890Z,8.27
2022-08-28T02:07:22.469Z,7.70
2022-08-28T02:09:49.255Z,7.95
2022-08-28T02:12:16.336Z,7.13
2022-08-28T02:14:42.896Z,7.07
2022-08-28T02:17:09.470Z,7.85
2022-08-28T02:19:36.301Z,7.22
2022-08-28T02:22:08.215Z,6.05
2022-08-28T02:24:35.669Z,6.88
2022-08-28T02:27:04.052Z,6.00
2022-08-28T02:29:30.661Z,6.55
2022-08-28T02:31:57.584Z,5.72
2022-08-28T02:34:24.292Z,6.18
2022-08-28T02:36:50.851Z,5.32
2022-08-28T02:39:17.511Z,5.25
2022-08-28T02:41:44.143Z,4.53
2022-08-28T02:44:10.690Z,5.45
2022-08-28T02:46:37.321Z,6.18
2022-08-28T02:49:03.865Z,5.10
2022-08-28T02:51:32.992Z,4.65
2022-08-28T02:54:00.776Z,4.20
2022-08-28T02:56:28.135Z,4.00
2022-08-28T02:58:56.649Z,3.78
2022-08-28T03:01:23.694Z,4.80
2022-08-28T03:03:50.342Z,5.05
2022-08-28T03:06:17.930Z,5.47
2022-08-28T03:08:44.997Z,3.42
2022-08-28T03:11:12.373Z,4.10
2022-08-28T03:13:39.001Z,3.83
2022-08-28T03:16:06.404Z,4.25
2022-08-28T03:18:33.307Z,4.38
2022-08-28T03:21:00.127Z,4.20
2022-08-28T03:23:26.961Z,4.28
2022-08-28T03:26:00.870Z,3.58
2022-08-28T03:28:30.960Z,3.67
2022-08-28T03:30:57.950Z,3.90
2022-08-28T03:33:25.176Z,3.47
2022-08-28T03:35:52.077Z,3.92
2022-08-28T03:38:19.380Z,4.97
2022-08-28T03:40:47.294Z,3.00
2022-08-28T03:43:17.161Z,3.78
2022-08-28T03:46:01.370Z,3.53
2022-08-28T03:48:30.507Z,3.05
2022-08-28T03:50:58.055Z,3.38
2022-08-28T03:53:26.851Z,3.75
2022-08-28T03:55:53.464Z,3.45
2022-08-28T03:58:20.024Z,3.92
2022-08-28T04:00:46.779Z,3.30
2022-08-28T04:03:13.804Z,3.03
2022-08-28T04:05:41.914Z,3.78
2022-08-28T04:08:09.101Z,3.25
2022-08-28T04:10:36.858Z,3.05
2022-08-28T04:13:03.817Z,3.20
2022-08-28T04:15:30.552Z,3.35
2022-08-28T04:17:57.223Z,3.60
2022-08-28T04:20:24.204Z,2.95
2022-08-28T04:22:55.198Z,3.60
2022-08-28T04:25:22.755Z,3.40
2022-08-28T04:27:50.630Z,3.10
2022-08-28T04:30:17.757Z,3.30
2022-08-28T04:32:44.553Z,3.53
2022-08-28T04:35:13.014Z,3.70
2022-08-28T04:37:40.449Z,3.20
2022-08-28T04:40:10.013Z,3.60
2022-08-28T04:42:37.935Z,3.28
2022-08-28T04:45:06.420Z,3.10
2022-08-28T04:47:37.420Z,2.58
2022-08-28T04:50:05.876Z,3.88
2022-08-28T04:52:32.610Z,2.95
2022-08-28T04:54:59.187Z,3.05
2022-08-28T04:57:26.102Z,3.83
2022-08-28T04:59:52.783Z,3.70
2022-08-28T05:02:19.458Z,3.05
2022-08-28T05:04:46.091Z,2.65
2022-08-28T05:07:15.375Z,3.22
2022-08-28T05:09:42.100Z,3.08
2022-08-28T05:12:08.852Z,3.15
2022-08-28T05:14:35.891Z,4.32
2022-08-28T05:17:02.528Z,3.35
2022-08-28T05:19:29.276Z,3.53
2022-08-28T05:21:55.924Z,3.83
2022-08-28T05:24:22.656Z,3.50
2022-08-28T05:26:49.595Z,3.42
2022-08-28T05:29:17.254Z,2.67
2022-08-28T05:31:44.116Z,3.15
2022-08-28T05:34:12.854Z,3.53
2022-08-28T05:36:40.043Z,3.63
2022-08-28T05:39:09.624Z,2.92
2022-08-28T05:41:37.012Z,3.53
2022-08-28T05:44:07.046Z,2.72
2022-08-28T05:46:34.877Z,3.53
2022-08-28T05:49:01.645Z,3.38
2022-08-28T05:51:28.586Z,3.85
2022-08-28T05:53:57.810Z,3.42
2022-08-28T05:56:30.378Z,3.53
2022-08-28T05:58:58.343Z,3.30
2022-08-28T06:01:28.688Z,3.70
2022-08-28T06:03:58.215Z,4.32
2022-08-28T06:06:26.218Z,4.13
2022-08-28T06:08:58.978Z,3.58
2022-08-28T06:11:30.409Z,4.32
2022-08-28T06:14:02.562Z,4.28
2022-08-28T06:16:30.952Z,3.63
2022-08-28T06:18:57.766Z,4.22
2022-08-28T06:21:25.082Z,3.55
2022-08-28T06:23:52.122Z,3.83
2022-08-28T06:26:18.982Z,5.18
2022-08-28T06:28:46.017Z,4.90
2022-08-28T06:31:23.965Z,4.18
2022-08-28T06:33:54.242Z,5.63
2022-08-28T06:36:21.423Z,4.72
2022-08-28T06:38:48.030Z,4.13
2022-08-28T06:41:15.830Z,3.75
2022-08-28T06:43:43.020Z,4.60
2022-08-28T06:46:09.964Z,4.20
2022-08-28T06:48:36.651Z,4.75
2022-08-28T06:51:06.260Z,5.05
2022-08-28T06:53:33.597Z,4.80
2022-08-28T06:56:08.694Z,6.22
2022-08-28T06:58:39.362Z,4.80
2022-08-28T07:01:08.833Z,4.78
2022-08-28T07:03:35.514Z,4.68
2022-08-28T07:06:11.218Z,3.92
2022-08-28T07:08:38.831Z,4.95
2022-08-28T07:11:15.696Z,4.38
2022-08-28T07:13:43.373Z,4.53
2022-08-28T07:16:11.058Z,4.45
2022-08-28T07:18:38.369Z,4.45
2022-08-28T07:21:08.050Z,3.75
2022-08-28T07:23:38.877Z,4.00
2022-08-28T07:26:08.422Z,3.88
2022-08-28T07:28:35.531Z,4.28
2022-08-28T07:31:05.419Z,4.35
2022-08-28T07:33:33.150Z,4.63
2022-08-28T07:36:00.937Z,4.53
2022-08-28T07:38:28.111Z,4.47
2022-08-28T07:40:55.550Z,4.93
2022-08-28T07:43:41.025Z,3.92
2022-08-28T07:46:09.546Z,5.22
2022-08-28T07:48:37.455Z,5.15
2022-08-28T07:51:04.906Z,3.92
2022-08-28T07:53:36.240Z,4.18
2022-08-28T07:56:03.813Z,4.47
2022-08-28T07:58:30.970Z,4.82
2022-08-28T08:00:58.076Z,4.57
2022-08-28T08:03:25.716Z,4.35
2022-08-28T08:05:54.367Z,4.80
2022-08-28T08:08:21.830Z,5.88
2022-08-28T08:11:02.384Z,4.35
2022-08-28T08:13:29.876Z,5.20
2022-08-28T08:16:13.298Z,4.75
2022-08-28T08:18:41.478Z,4.78
2022-08-28T08:21:10.091Z,4.13
2022-08-28T08:23:37.284Z,3.67
2022-08-28T08:26:06.372Z,3.85
2022-08-28T08:28:37.042Z,4.30
2022-08-28T08:31:08.212Z,4.18
2022-08-28T08:33:38.415Z,4.65
2022-08-28T08:36:06.645Z,4.50
2022-08-28T08:38:35.760Z,4.45
2022-08-28T08:41:06.372Z,4.07
2022-08-28T08:44:07.951Z,4.45
2022-08-28T08:47:00.575Z,4.80
2022-08-28T08:49:31.958Z,3.92
2022-08-28T08:52:06.862Z,4.25
2022-08-28T08:54:33.514Z,4.03
2022-08-28T08:57:02.492Z,4.25
2022-08-28T08:59:32.153Z,4.22
2022-08-28T09:02:05.907Z,3.58
2022-08-28T09:04:42.195Z,4.03
2022-08-28T09:07:17.044Z,4.75
2022-08-28T09:09:48.457Z,4.10
2022-08-28T09:12:20.943Z,3.95
2022-08-28T09:14:58.336Z,4.10
2022-08-28T09:17:28.848Z,4.13
2022-08-28T09:19:58.568Z,4.45
2022-08-28T09:22:25.308Z,4.22
2022-08-28T09:24:52.113Z,4.75
2022-08-28T09:27:28.891Z,4.28
2022-08-28T09:30:07.343Z,4.82
2022-08-28T09:32:35.913Z,4.93
2022-08-28T09:35:08.471Z,4.57
2022-08-28T09:37:36.130Z,4.97
2022-08-28T09:40:47.948Z,4.50
2022-08-28T09:43:26.821Z,4.63
2022-08-28T09:46:30.853Z,5.18
2022-08-28T09:49:12.954Z,5.00
2022-08-28T09:51:40.122Z,5.72
2022-08-28T09:54:14.145Z,4.70
2022-08-28T09:56:42.777Z,4.53
2022-08-28T09:59:14.921Z,5.55
2022-08-28T10:01:44.707Z,5.53
2022-08-28T10:04:19.621Z,5.25
2022-08-28T10:06:53.175Z,4.78
2022-08-28T10:09:25.428Z,5.00
2022-08-28T10:12:09.477Z,5.95
2022-08-28T10:14:51.300Z,5.68
2022-08-28T10:17:27.867Z,4.82
2022-08-28T10:20:07.706Z,4.90
2022-08-28T10:22:43.224Z,5.43
2022-08-28T10:25:33.081Z,4.82
2022-08-28T10:28:11.807Z,5.60
2022-08-28T10:30:44.757Z,5.10
2022-08-28T10:33:48.408Z,5.90
2022-08-28T10:36:27.138Z,5.68
2022-08-28T10:39:31.861Z,5.82
2022-08-28T10:42:00.544Z,5.88
2022-08-28T10:44:36.710Z,5.80
2022-08-28T10:47:04.133Z,6.22
2022-08-28T10:49:51.551Z,5.95
2022-08-28T10:52:24.358Z,6.20
2022-08-28T10:54:55.321Z,6.30
2022-08-28T10:57:37.289Z,6.40
2022-08-28T11:00:12.252Z,6.03
2022-08-28T11:02:44.785Z,6.93
2022-08-28T11:05:14.014Z,6.00
2022-08-28T11:07:45.670Z,6.20
2022-08-28T11:10:18.696Z,5.68
2022-08-28T11:12:45.504Z,5.50
2022-08-28T11:15:37.138Z,5.70
2022-08-28T11:18:15.965Z,5.15
2022-08-28T11:21:12.383Z,6.35
2022-08-28T11:23:44.862Z,6.75
2022-08-28T11:26:13.351Z,6.60
2022-08-28T11:28:41.345Z,5.00
2022-08-28T11:31:07.867Z,6.60
2022-08-28T11:33:42.339Z,5.65
2022-08-28T11:36:20.789Z,6.85
2022-08-28T11:38:58.577Z,6.55
2022-08-28T11:41:33.904Z,5.78
2022-08-28T11:44:09.589Z,6.95
2022-08-28T11:46:50.763Z,6.50
2022-08-28T11:49:26.655Z,6.18
2022-08-28T11:52:02.744Z,6.97
2022-08-28T11:54:57.339Z,5.57
2022-08-28T11:57:51.644Z,5.95
2022-08-28T12:00:51.365Z,6.07
2022-08-28T12:03:41.127Z,6.03
2022-08-28T12:06:08.769Z,5.63
2022-08-28T12:08:44.460Z,5.07
2022-08-28T12:11:39.702Z,5.32
2022-08-28T12:14:11.352Z,5.10
2022-08-28T12:17:07.615Z,5.43
2022-08-28T12:19:54.624Z,5.03
2022-08-28T12:22:26.636Z,4.68
2022-08-28T12:24:58.320Z,4.82
2022-08-28T12:27:25.545Z,5.18
2022-08-28T12:29:55.898Z,4.03
2022-08-28T12:32:42.191Z,4.63
2022-08-28T12:35:17.819Z,4.95
2022-08-28T12:38:01.172Z,4.38
2022-08-28T12:40:31.659Z,4.00
2022-08-28T12:43:03.236Z,4.43
2022-08-28T12:45:39.408Z,5.50
2022-08-28T12:48:17.394Z,4.50
2022-08-28T12:50:44.358Z,4.57
2022-08-28T12:53:14.580Z,5.65
2022-08-28T12:55:41.323Z,4.80
2022-08-28T12:58:35.097Z,4.88
2022-08-28T13:01:06.817Z,5.03
2022-08-28T13:03:33.652Z,5.25
2022-08-28T13:06:09.103Z,5.68
2022-08-28T13:08:37.167Z,5.65
2022-08-28T13:11:04.421Z,5.30
2022-08-28T13:13:37.732Z,4.47
2022-08-28T13:16:14.160Z,4.72
2022-08-28T13:18:42.619Z,4.20
2022-08-28T13:21:32.430Z,4.57
2022-08-28T13:24:24.123Z,4.00
2022-08-28T13:27:07.128Z,3.53
2022-08-28T13:29:34.495Z,3.53
2022-08-28T13:32:09.698Z,3.95
2022-08-28T13:34:38.464Z,3.80
2022-08-28T13:37:19.175Z,3.67
2022-08-28T13:39:47.016Z,3.25
2022-08-28T13:42:16.532Z,3.70
2022-08-28T13:44:53.347Z,3.28
2022-08-28T13:47:20.163Z,4.60
2022-08-28T13:49:46.869Z,3.47
2022-08-28T13:52:13.899Z,3.45
2022-08-28T13:54:43.536Z,3.20
2022-08-28T13:57:10.817Z,3.58
2022-08-28T13:59:37.433Z,3.42
2022-08-28T14:02:25.112Z,3.72
2022-08-28T14:04:51.750Z,3.38
2022-08-28T14:07:18.730Z,3.15
2022-08-28T14:09:45.351Z,4.03
2022-08-28T14:12:12.237Z,3.40
2022-08-28T14:14:39.075Z,3.53
2022-08-28T14:17:07.161Z,3.40
2022-08-28T14:19:34.683Z,3.60
2022-08-28T14:22:01.295Z,3.90
2022-08-28T14:24:28.093Z,3.70
2022-08-28T14:26:55.559Z,3.75
2022-08-28T14:29:22.318Z,3.25
2022-08-28T14:31:49.055Z,3.80
2022-08-28T14:34:19.269Z,3.40
2022-08-28T14:36:50.933Z,3.28
2022-08-28T14:39:17.838Z,2.95
2022-08-28T14:41:47.042Z,3.45
2022-08-28T14:44:14.088Z,2.90
2022-08-28T14:46:42.854Z,3.30
2022-08-28T14:49:12.078Z,3.33
2022-08-28T14:51:39.754Z,3.10
2022-08-28T14:54:07.650Z,3.50
2022-08-28T14:56:34.788Z,3.28
2022-08-28T14:59:02.852Z,4.00
2022-08-28T15:01:40.982Z,2.78
2022-08-28T15:04:13.110Z,2.90
2022-08-28T15:06:42.583Z,2.92
2022-08-28T15:09:11.466Z,3.00
2022-08-28T15:11:39.422Z,3.85
2022-08-28T15:14:06.649Z,3.72
2022-08-28T15:16:36.400Z,3.85
2022-08-28T15:19:03.165Z,3.38
2022-08-28T15:21:35.468Z,2.92
2022-08-28T15:24:04.116Z,2.95
2022-08-28T15:26:31.681Z,2.70
2022-08-28T15:29:02.489Z,3.10
2022-08-28T15:31:36.346Z,3.30
2022-08-28T15:34:06.552Z,3.45
2022-08-28T15:36:40.572Z,3.22
2022-08-28T15:39:26.360Z,3.03
2022-08-28T15:41:53.020Z,2.92
2022-08-28T15:44:19.617Z,2.80
2022-08-28T15:46:56.268Z,3.85
2022-08-28T15:49:24.151Z,3.22
2022-08-28T15:51:51.219Z,2.65
2022-08-28T15:54:17.847Z,3.45
2022-08-28T15:56:44.547Z,2.78
2022-08-28T15:59:12.015Z,3.58
2022-08-28T16:01:39.085Z,3.80
2022-08-28T16:04:06.794Z,2.80
2022-08-28T16:06:34.293Z,2.53
2022-08-28T16:09:00.960Z,3.22
2022-08-28T16:11:28.313Z,3.58
2022-08-28T16:13:58.976Z,3.25
2022-08-28T16:16:25.711Z,3.30
2022-08-28T16:18:54.439Z,3.65
2022-08-28T16:21:21.052Z,3.65
2022-08-28T16:23:48.497Z,2.90
2022-08-28T16:26:15.950Z,3.15
2022-08-28T16:28:44.848Z,3.35
2022-08-28T16:31:19.845Z,3.00
2022-08-28T16:33:48.458Z,2.40
2022-08-28T16:36:18.079Z,2.85
2022-08-28T16:38:47.984Z,2.60
2022-08-28T16:41:18.189Z,2.55
2022-08-28T16:43:45.095Z,2.40
2022-08-28T16:46:13.675Z,2.78
2022-08-28T16:48:40.448Z,2.42
2022-08-28T16:51:07.617Z,2.80
2022-08-28T16:53:34.198Z,3.83
2022-08-28T16:56:00.865Z,2.95
2022-08-28T16:58:27.608Z,3.38
2022-08-28T17:00:55.076Z,2.95
2022-08-28T17:03:26.385Z,2.95
2022-08-28T17:05:54.406Z,3.28
2022-08-28T17:08:20.937Z,2.72
2022-08-28T17:10:47.556Z,3.75
2022-08-28T17:13:14.190Z,2.58
2022-08-28T17:15:40.826Z,3.58
2022-08-28T17:18:09.329Z,2.88
2022-08-28T17:20:57.593Z,2.33
2022-08-28T17:23:24.198Z,2.22
2022-08-28T17:25:51.062Z,3.85
2022-08-28T17:28:17.643Z,2.75
2022-08-28T17:30:44.331Z,3.30
2022-08-28T17:33:10.963Z,3.13
2022-08-28T17:35:40.324Z,3.78
2022-08-28T17:38:09.052Z,3.38
2022-08-28T17:40:35.786Z,2.63
2022-08-28T17:43:03.692Z,2.78
2022-08-28T17:45:30.283Z,2.35
2022-08-28T17:47:56.921Z,2.67
2022-08-28T17:50:23.766Z,2.85
2022-08-28T17:52:50.634Z,2.63
2022-08-28T17:55:18.598Z,2.75
2022-08-28T17:57:45.132Z,2.40
2022-08-28T18:00:16.374Z,3.10
2022-08-28T18:02:43.839Z,2.60
2022-08-28T18:05:12.003Z,2.40
2022-08-28T18:07:39.036Z,2.20
2022-08-28T18:10:07.016Z,2.92
2022-08-28T18:12:33.723Z,3.50
2022-08-28T18:15:00.351Z,2.53
2022-08-28T18:17:28.253Z,3.30
2022-08-28T18:19:55.205Z,3.08
2022-08-28T18:22:22.980Z,2.20
2022-08-28T18:24:54.874Z,2.35
2022-08-28T18:27:22.115Z,2.50
2022-08-28T18:29:49.548Z,3.08
2022-08-28T18:32:16.130Z,3.33
2022-08-28T18:34:42.759Z,3.10
2022-08-28T18:37:09.682Z,2.90
2022-08-28T18:39:36.229Z,3.30
2022-08-28T18:42:04.988Z,3.33
2022-08-28T18:44:32.477Z,2.53
2022-08-28T18:46:59.408Z,2.72
2022-08-28T18:49:27.243Z,2.42
2022-08-28T18:51:54.366Z,2.42
2022-08-28T18:54:21.681Z,2.08
2022-08-28T18:56:50.498Z,2.75
2022-08-28T18:59:17.827Z,2.95
2022-08-28T19:01:44.794Z,2.47
2022-08-28T19:04:11.583Z,2.40
2022-08-28T19:06:38.214Z,2.75
2022-08-28T19:09:05.784Z,2.47
2022-08-28T19:11:32.632Z,2.40
2022-08-28T19:14:03.760Z,2.72
2022-08-28T19:16:31.971Z,2.90
2022-08-28T19:18:58.598Z,2.30
2022-08-28T19:21:25.118Z,2.72
2022-08-28T19:23:55.355Z,2.22
2022-08-28T19:26:24.732Z,2.53
2022-08-28T19:28:51.621Z,2.20
2022-08-28T19:31:18.393Z,2.38
2022-08-28T19:33:46.528Z,2.70
2022-08-28T19:36:13.836Z,3.50
2022-08-28T19:38:40.970Z,2.38
2022-08-28T19:41:08.873Z,2.83
2022-08-28T19:43:44.136Z,2.42
2022-08-28T19:46:20.092Z,3.10
2022-08-28T19:48:48.614Z,2.33
2022-08-28T19:51:22.421Z,2.40
2022-08-28T19:53:56.761Z,3.28
2022-08-28T19:56:27.507Z,2.58
2022-08-28T19:58:54.966Z,2.33
2022-08-28T20:01:24.564Z,2.50
2022-08-28T20:03:51.197Z,2.42
2022-08-28T20:06:17.884Z,2.50
2022-08-28T20:08:44.513Z,2.30
2022-08-28T20:11:17.026Z,2.72
2022-08-28T20:13:44.214Z,2.33
2022-08-28T20:16:10.883Z,2.58
2022-08-28T20:18:37.555Z,2.63
2022-08-28T20:21:04.531Z,2.80
2022-08-28T20:23:31.130Z,2.63
2022-08-28T20:25:57.715Z,2.53
2022-08-28T20:28:24.263Z,2.67
2022-08-28T20:30:50.884Z,2.35
2022-08-28T20:33:17.512Z,2.90
2022-08-28T20:35:44.137Z,3.83
2022-08-28T20:38:11.386Z,3.58
2022-08-28T20:40:38.123Z,3.35
2022-08-28T20:43:05.368Z,2.53
2022-08-28T20:45:31.953Z,2.55
2022-08-28T20:47:58.786Z,3.00
2022-08-28T20:50:25.421Z,2.97
2022-08-28T20:52:52.050Z,3.42
2022-08-28T20:55:18.756Z,3.22
2022-08-28T20:57:45.331Z,2.67
2022-08-28T21:00:12.991Z,2.70
2022-08-28T21:02:39.815Z,2.70
2022-08-28T21:05:06.801Z,2.55
2022-08-28T21:07:34.914Z,2.70
2022-08-28T21:10:05.346Z,2.53
2022-08-28T21:12:33.314Z,2.80
2022-08-28T21:15:00.110Z,3.25
2022-08-28T21:17:29.858Z,3.38
2022-08-28T21:19:58.999Z,2.83
2022-08-28T21:22:25.655Z,2.60
2022-08-28T21:24:52.268Z,3.88
2022-08-28T21:27:18.910Z,2.33
2022-08-28T21:29:46.193Z,2.83
2022-08-28T21:32:13.118Z,3.00
2022-08-28T21:34:39.848Z,2.83
2022-08-28T21:37:06.611Z,2.95
2022-08-28T21:39:33.424Z,2.78
2022-08-28T21:42:00.173Z,3.20
2022-08-28T21:44:26.754Z,3.33
2022-08-28T21:46:53.514Z,3.17
2022-08-28T21:49:20.173Z,2.47
2022-08-28T21:51:47.223Z,2.83
2022-08-28T21:54:14.408Z,3.33
2022-08-28T21:56:42.552Z,3.20
2022-08-28T21:59:09.180Z,2.10
2022-08-28T22:01:35.897Z,2.30
2022-08-28T22:04:02.768Z,2.75
2022-08-28T22:06:29.425Z,2.92
2022-08-28T22:08:56.570Z,3.13
2022-08-28T22:11:25.199Z,2.70
2022-08-28T22:13:53.011Z,3.00
2022-08-28T22:16:20.629Z,2.85
2022-08-28T22:18:47.493Z,3.22
2022-08-28T22:21:35.466Z,3.00
2022-08-28T22:24:02.322Z,2.80
2022-08-28T22:26:29.060Z,2.72
2022-08-28T22:28:56.270Z,2.85
2022-08-28T22:31:23.287Z,3.17
2022-08-28T22:33:50.388Z,3.00
2022-08-28T22:36:17.531Z,3.10
2022-08-28T22:38:47.110Z,3.45
2022-08-28T22:41:20.732Z,3.00
2022-08-28T22:43:51.120Z,2.60
2022-08-28T22:46:20.575Z,3.42
2022-08-28T22:48:47.698Z,3.10
2022-08-28T22:51:16.920Z,2.88
2022-08-28T22:53:43.787Z,2.70
2022-08-28T22:56:11.263Z,2.22
2022-08-28T22:58:38.168Z,3.65
2022-08-28T23:01:09.286Z,2.85
2022-08-28T23:03:36.334Z,2.95
2022-08-28T23:06:03.107Z,3.25
2022-08-28T23:08:33.704Z,2.55
2022-08-28T23:11:00.976Z,3.30
2022-08-28T23:13:28.017Z,2.72
2022-08-28T23:15:54.580Z,2.97
2022-08-28T23:18:21.258Z,3.50
2022-08-28T23:20:47.963Z,3.03
2022-08-28T23:23:17.339Z,3.17
2022-08-28T23:25:44.118Z,2.47
2022-08-28T23:28:10.773Z,3.47
2022-08-28T23:30:39.166Z,3.72
2022-08-28T23:33:08.435Z,3.60
2022-08-28T23:35:35.732Z,3.17
2022-08-28T23:38:03.625Z,3.15
2022-08-28T23:40:30.645Z,3.30
2022-08-28T23:42:58.127Z,2.92
2022-08-28T23:45:26.364Z,2.90
2022-08-28T23:47:54.885Z,3.03
2022-08-28T23:50:23.173Z,2.92
2022-08-28T23:52:50.409Z,2.70
2022-08-28T23:55:19.234Z,2.83
2022-08-28T23:57:46.122Z,2.90
